createdAt,value
2022-07-26T00:02:50.074Z,25.58
2022-07-26T00:08:21.425Z,25.44
2022-07-26T00:13:52.749Z,25.30
2022-07-26T00:19:24.049Z,25.21
2022-07-26T00:24:55.155Z,25.10
2022-07-26T00:30:27.305Z,25.02
2022-07-26T00:35:58.345Z,24.93
2022-07-26T00:41:29.185Z,24.84
2022-07-26T00:47:00.231Z,24.77
2022-07-26T00:52:31.348Z,24.66
2022-07-26T00:58:02.687Z,24.65
2022-07-26T01:03:36.638Z,24.64
2022-07-26T01:09:11.925Z,24.64
2022-07-26T01:14:44.762Z,24.65
2022-07-26T01:20:15.668Z,24.65
2022-07-26T01:25:48.631Z,24.66
2022-07-26T01:31:20.509Z,24.64
2022-07-26T01:36:51.635Z,24.65
2022-07-26T01:42:22.648Z,24.65
2022-07-26T01:47:53.801Z,24.64
2022-07-26T01:53:24.954Z,24.64
2022-07-26T01:58:56.142Z,24.61
2022-07-26T02:04:45.816Z,24.59
2022-07-26T02:10:17.607Z,24.58
2022-07-26T02:15:48.962Z,24.58
2022-07-26T02:21:20.087Z,24.56
2022-07-26T02:26:51.373Z,24.54
2022-07-26T02:32:22.262Z,24.52
2022-07-26T02:37:53.281Z,24.50
2022-07-26T02:43:24.377Z,24.48
2022-07-26T02:49:10.686Z,24.42
2022-07-26T02:54:41.812Z,24.40
2022-07-26T03:00:14.337Z,24.34
2022-07-26T03:05:45.507Z,24.30
2022-07-26T03:11:16.743Z,24.26
2022-07-26T03:16:48.037Z,24.22
2022-07-26T03:22:19.035Z,24.18
2022-07-26T03:27:50.173Z,24.15
2022-07-26T03:33:21.084Z,24.09
2022-07-26T03:38:52.124Z,24.06
2022-07-26T03:44:23.076Z,24.01
2022-07-26T03:49:54.053Z,23.98
2022-07-26T03:55:43.337Z,23.96
2022-07-26T04:01:14.590Z,23.95
2022-07-26T04:06:47.536Z,23.93
2022-07-26T04:12:18.384Z,23.89
2022-07-26T04:17:49.729Z,23.84
2022-07-26T04:23:20.575Z,23.82
2022-07-26T04:28:51.856Z,23.83
2022-07-26T04:34:23.019Z,23.84
2022-07-26T04:39:55.136Z,23.85
2022-07-26T04:45:26.690Z,23.85
2022-07-26T04:50:58.141Z,23.84
2022-07-26T04:56:29.135Z,23.82
2022-07-26T05:02:00.621Z,23.82
2022-07-26T05:07:49.684Z,23.82
2022-07-26T05:13:23.148Z,23.82
2022-07-26T05:19:01.849Z,23.82
2022-07-26T05:24:32.782Z,23.81
2022-07-26T05:30:04.398Z,23.83
2022-07-26T05:35:35.894Z,23.83
2022-07-26T05:41:07.448Z,23.87
2022-07-26T05:46:38.897Z,23.88
2022-07-26T05:52:10.871Z,23.88
2022-07-26T05:57:42.232Z,23.90
2022-07-26T06:03:25.984Z,23.90
2022-07-26T06:08:57.025Z,23.90
2022-07-26T06:14:27.958Z,23.87
2022-07-26T06:20:00.301Z,23.77
2022-07-26T06:25:31.314Z,23.69
2022-07-26T06:31:02.251Z,23.61
2022-07-26T06:36:33.913Z,23.56
2022-07-26T06:42:04.709Z,23.55
2022-07-26T06:47:35.750Z,23.55
2022-07-26T06:53:06.969Z,23.59
2022-07-26T06:58:38.224Z,23.66
2022-07-26T07:04:09.378Z,23.70
2022-07-26T07:09:41.082Z,23.70
2022-07-26T07:15:13.371Z,23.70
2022-07-26T07:20:44.624Z,23.77
2022-07-26T07:26:15.843Z,23.79
2022-07-26T07:31:49.636Z,23.76
2022-07-26T07:37:21.458Z,23.74
2022-07-26T07:42:52.359Z,23.69
2022-07-26T07:48:23.623Z,23.67
2022-07-26T07:53:56.200Z,23.68
2022-07-26T07:59:28.742Z,23.73
2022-07-26T08:05:04.800Z,23.77
2022-07-26T08:10:52.012Z,23.78
2022-07-26T08:16:23.979Z,23.80
2022-07-26T08:21:55.295Z,23.80
2022-07-26T08:27:26.708Z,23.79
2022-07-26T08:32:57.874Z,23.77
2022-07-26T08:38:28.909Z,23.77
2022-07-26T08:44:11.033Z,23.80
2022-07-26T08:49:43.358Z,23.90
2022-07-26T08:55:19.771Z,24.04
2022-07-26T09:01:07.429Z,24.23
2022-07-26T09:06:38.282Z,24.53
2022-07-26T09:12:18.879Z,24.90
2022-07-26T09:17:54.028Z,25.28
2022-07-26T09:23:25.074Z,25.61
2022-07-26T09:29:22.646Z,25.96
2022-07-26T09:34:58.767Z,26.08
2022-07-26T09:40:36.054Z,26.18
2022-07-26T09:46:07.541Z,26.20
2022-07-26T09:51:44.935Z,26.43
2022-07-26T09:57:17.713Z,26.64
2022-07-26T10:02:48.551Z,26.71
2022-07-26T10:08:19.795Z,26.67
2022-07-26T10:13:50.913Z,26.65
2022-07-26T10:19:45.835Z,26.66
2022-07-26T10:25:18.735Z,26.78
2022-07-26T10:30:50.173Z,26.85
2022-07-26T10:36:26.721Z,26.98
2022-07-26T10:42:07.696Z,27.11
2022-07-26T10:48:11.031Z,27.20
2022-07-26T10:53:43.157Z,27.25
2022-07-26T10:59:20.237Z,27.24
2022-07-26T11:05:14.540Z,27.26
2022-07-26T11:10:47.606Z,27.29
2022-07-26T11:16:18.812Z,27.39
2022-07-26T11:21:59.229Z,27.35
2022-07-26T11:27:31.045Z,27.26
2022-07-26T11:33:02.207Z,27.18
2022-07-26T11:38:52.923Z,27.11
2022-07-26T11:44:24.357Z,27.12
2022-07-26T11:55:47.585Z,27.09
2022-07-26T12:01:21.076Z,27.11
2022-07-26T12:06:53.549Z,27.23
2022-07-26T12:12:29.149Z,27.30
2022-07-26T12:18:00.319Z,27.31
2022-07-26T12:23:45.852Z,27.42
2022-07-26T12:29:30.055Z,27.52
2022-07-26T12:35:33.750Z,27.55
2022-07-26T12:41:05.432Z,27.57
2022-07-26T12:46:36.746Z,27.68
2022-07-26T12:52:07.926Z,27.86
2022-07-26T12:57:38.845Z,28.05
2022-07-26T13:03:17.280Z,28.14
2022-07-26T13:08:49.279Z,28.21
2022-07-26T13:14:20.127Z,28.26
2022-07-26T13:19:51.165Z,28.23
2022-07-26T13:25:22.158Z,28.26
2022-07-26T13:30:55.088Z,28.24
2022-07-26T13:36:26.614Z,28.13
2022-07-26T13:41:57.775Z,28.20
2022-07-26T13:47:28.819Z,28.33
2022-07-26T13:52:59.935Z,28.46
2022-07-26T13:58:31.128Z,28.51
2022-07-26T14:04:07.075Z,28.47
2022-07-26T14:09:38.049Z,28.41
2022-07-26T14:15:18.076Z,28.33
2022-07-26T14:20:54.569Z,28.24
2022-07-26T14:26:26.297Z,28.17
2022-07-26T14:31:58.601Z,28.09
2022-07-26T14:37:41.558Z,28.03
2022-07-26T14:43:16.276Z,28.03
2022-07-26T14:48:54.466Z,28.07
2022-07-26T14:54:26.439Z,28.05
2022-07-26T14:59:59.390Z,27.94
2022-07-26T15:05:30.693Z,27.82
2022-07-26T15:11:02.089Z,27.71
2022-07-26T15:16:33.945Z,27.66
2022-07-26T15:22:05.090Z,27.68
2022-07-26T15:27:36.250Z,27.69
2022-07-26T15:33:07.876Z,27.68
2022-07-26T15:38:40.610Z,27.59
2022-07-26T15:44:12.363Z,27.45
2022-07-26T15:49:43.559Z,27.39
2022-07-26T15:55:16.969Z,27.31
2022-07-26T16:00:49.258Z,27.26
2022-07-26T16:06:21.533Z,27.19
2022-07-26T16:11:52.621Z,27.11
2022-07-26T16:17:23.500Z,27.03
2022-07-26T16:22:55.368Z,26.97
2022-07-26T16:28:26.510Z,26.90
2022-07-26T16:33:57.457Z,26.83
2022-07-26T16:39:28.296Z,26.79
2022-07-26T16:44:59.242Z,26.73
2022-07-26T16:50:30.323Z,26.69
2022-07-26T16:56:01.441Z,26.64
2022-07-26T17:01:33.852Z,26.50
2022-07-26T17:12:56.270Z,26.37
2022-07-26T17:18:28.425Z,26.37
2022-07-26T17:24:03.823Z,26.35
2022-07-26T17:29:36.604Z,26.30
2022-07-26T17:35:08.737Z,26.25
2022-07-26T17:40:40.105Z,26.18
2022-07-26T17:46:13.486Z,26.01
2022-07-26T17:51:46.125Z,25.96
2022-07-26T17:57:17.630Z,25.89
2022-07-26T18:02:48.782Z,25.81
2022-07-26T18:08:20.185Z,25.78
2022-07-26T18:13:51.453Z,25.75
2022-07-26T18:19:23.693Z,25.71
2022-07-26T18:24:54.679Z,25.65
2022-07-26T18:30:25.815Z,25.60
2022-07-26T18:35:59.157Z,25.53
2022-07-26T18:41:30.639Z,25.01
2022-07-26T18:47:05.090Z,24.42
2022-07-26T18:52:36.643Z,24.15
2022-07-26T18:58:08.554Z,23.86
2022-07-26T19:03:46.229Z,23.61
2022-07-26T19:09:18.738Z,23.40
2022-07-26T19:14:50.143Z,23.23
2022-07-26T19:20:21.806Z,23.36
2022-07-26T19:25:53.309Z,23.63
2022-07-26T19:31:24.621Z,23.89
2022-07-26T19:36:58.048Z,24.08
2022-07-26T19:42:31.533Z,24.17
2022-07-26T19:48:02.773Z,24.20
2022-07-26T19:53:34.119Z,24.22
2022-07-26T19:59:05.326Z,24.22
2022-07-26T20:04:36.366Z,24.18
2022-07-26T20:10:08.462Z,24.15
2022-07-26T20:15:40.372Z,24.09
2022-07-26T20:21:11.597Z,24.02
2022-07-26T20:26:43.187Z,23.96
2022-07-26T20:32:14.487Z,23.89
2022-07-26T20:37:45.426Z,23.78
2022-07-26T20:43:17.457Z,23.68
2022-07-26T20:48:48.901Z,23.63
2022-07-26T20:54:20.398Z,23.55
2022-07-26T20:59:51.384Z,23.46
2022-07-26T21:05:22.554Z,23.40
2022-07-26T21:10:54.133Z,23.34
2022-07-26T21:16:25.180Z,23.28
2022-07-26T21:21:57.392Z,23.19
2022-07-26T21:27:28.872Z,23.13
2022-07-26T21:32:59.718Z,23.03
2022-07-26T21:38:32.199Z,22.99
2022-07-26T21:44:04.442Z,22.95
2022-07-26T21:49:35.575Z,22.88
2022-07-26T21:55:07.000Z,22.79
2022-07-26T22:00:39.416Z,22.70
2022-07-26T22:06:11.130Z,22.62
2022-07-26T22:11:42.442Z,22.55
2022-07-26T22:17:13.517Z,22.50
2022-07-26T22:22:44.470Z,22.42
2022-07-26T22:28:18.550Z,22.38
2022-07-26T22:33:50.150Z,22.32
2022-07-26T22:39:21.255Z,22.22
2022-07-26T22:44:52.197Z,22.13
2022-07-26T22:50:24.835Z,22.11
2022-07-26T22:55:56.731Z,22.05
2022-07-26T23:01:27.544Z,22.02
2022-07-26T23:06:59.002Z,21.95
2022-07-26T23:12:31.196Z,21.88
2022-07-26T23:18:02.125Z,21.83
2022-07-26T23:23:33.001Z,21.78
2022-07-26T23:29:04.744Z,21.71
2022-07-26T23:34:35.850Z,21.64
2022-07-26T23:40:07.204Z,21.62
2022-07-26T23:45:38.153Z,21.58
2022-07-26T23:51:08.921Z,21.55
2022-07-26T23:56:39.642Z,21.51
